sensor_id;sensor_type;location;lat;lon;timestamp;temperature;humidity
2202;DHT22;1107;48.654;9.250;2022-11-15T00:02:16;9.50;1.00
2202;DHT22;1107;48.654;9.250;2022-11-15T00:04:42;9.50;99.90
2202;DHT22;1107;48.654;9.250;2022-11-15T00:07:11;9.60;1.00
2202;DHT22;1107;48.654;9.250;2022-11-15T00:09:38;9.70;1.00
2202;DHT22;1107;48.654;9.250;2022-11-15T00:12:05;9.70;1.00
2202;DHT22;1107;48.654;9.250;2022-11-15T00:14:32;9.70;1.00
2202;DHT22;1107;48.654;9.250;2022-11-15T00:16:59;9.70;1.00
2202;DHT22;1107;48.654;9.250;2022-11-15T00:19:26;9.70;1.00
2202;DHT22;1107;48.654;9.250;2022-11-15T00:21:53;9.70;1.00
2202;DHT22;1107;48.654;9.250;2022-11-15T00:24:21;9.70;99.90
2202;DHT22;1107;48.654;9.250;2022-11-15T00:26:48;9.80;99.90
2202;DHT22;1107;48.654;9.250;2022-11-15T00:29:15;9.70;99.90
2202;DHT22;1107;48.654;9.250;2022-11-15T00:31:42;9.70;99.90
2202;DHT22;1107;48.654;9.250;2022-11-15T00:34:09;9.70;99.90
2202;DHT22;1107;48.654;9.250;2022-11-15T00:36:36;9.70;99.90
2202;DHT22;1107;48.654;9.250;2022-11-15T00:39:04;9.60;1.00
2202;DHT22;1107;48.654;9.250;2022-11-15T00:41:32;9.60;1.00
2202;DHT22;1107;48.654;9.250;2022-11-15T00:43:59;9.50;1.00
2202;DHT22;1107;48.654;9.250;2022-11-15T00:46:26;9.40;50.70
2202;DHT22;1107;48.654;9.250;2022-11-15T00:48:53;9.40;99.90
2202;DHT22;1107;48.654;9.250;2022-11-15T00:51:20;9.40;99.90
2202;DHT22;1107;48.654;9.250;2022-11-15T00:53:47;9.30;99.90
2202;DHT22;1107;48.654;9.250;2022-11-15T00:56:14;9.30;1.00
2202;DHT22;1107;48.654;9.250;2022-11-15T00:58:42;9.30;1.00
2202;DHT22;1107;48.654;9.250;2022-11-15T01:01:11;9.20;1.00
2202;DHT22;1107;48.654;9.250;2022-11-15T01:03:39;9.20;1.00
2202;DHT22;1107;48.654;9.250;2022-11-15T01:06:07;9.20;1.00
2202;DHT22;1107;48.654;9.250;2022-11-15T01:08:35;9.20;3.30
2202;DHT22;1107;48.654;9.250;2022-11-15T01:11:03;9.20;1.00
2202;DHT22;1107;48.654;9.250;2022-11-15T01:13:31;9.20;1.00
2202;DHT22;1107;48.654;9.250;2022-11-15T01:16:06;9.20;1.00
2202;DHT22;1107;48.654;9.250;2022-11-15T01:18:33;9.10;1.00
2202;DHT22;1107;48.654;9.250;2022-11-15T01:21:00;9.10;99.90
2202;DHT22;1107;48.654;9.250;2022-11-15T01:23:30;9.10;65.80
2202;DHT22;1107;48.654;9.250;2022-11-15T01:25:59;9.10;99.90
2202;DHT22;1107;48.654;9.250;2022-11-15T01:28:30;9.10;99.90
2202;DHT22;1107;48.654;9.250;2022-11-15T01:30:59;9.10;1.00
2202;DHT22;1107;48.654;9.250;2022-11-15T01:33:26;9.00;1.00
2202;DHT22;1107;48.654;9.250;2022-11-15T01:35:54;9.00;1.00
2202;DHT22;1107;48.654;9.250;2022-11-15T01:38:21;8.90;99.90
2202;DHT22;1107;48.654;9.250;2022-11-15T01:40:48;8.90;1.00
2202;DHT22;1107;48.654;9.250;2022-11-15T01:43:20;8.70;1.00
2202;DHT22;1107;48.654;9.250;2022-11-15T01:45:50;8.90;1.00
2202;DHT22;1107;48.654;9.250;2022-11-15T01:48:21;8.80;1.00
2202;DHT22;1107;48.654;9.250;2022-11-15T01:50:49;8.80;1.00
2202;DHT22;1107;48.654;9.250;2022-11-15T01:53:17;8.80;99.90
2202;DHT22;1107;48.654;9.250;2022-11-15T01:55:46;8.80;1.00
2202;DHT22;1107;48.654;9.250;2022-11-15T01:58:13;8.70;1.00
2202;DHT22;1107;48.654;9.250;2022-11-15T02:00:40;8.70;99.90
2202;DHT22;1107;48.654;9.250;2022-11-15T02:03:07;8.60;1.00
2202;DHT22;1107;48.654;9.250;2022-11-15T02:05:36;8.60;1.00
2202;DHT22;1107;48.654;9.250;2022-11-15T02:08:04;8.50;99.90
2202;DHT22;1107;48.654;9.250;2022-11-15T02:10:32;8.40;99.90
2202;DHT22;1107;48.654;9.250;2022-11-15T02:12:59;8.40;1.00
2202;DHT22;1107;48.654;9.250;2022-11-15T02:15:36;8.30;1.00
2202;DHT22;1107;48.654;9.250;2022-11-15T02:18:13;8.30;1.00
2202;DHT22;1107;48.654;9.250;2022-11-15T02:21:03;8.20;99.90
2202;DHT22;1107;48.654;9.250;2022-11-15T02:24:07;8.20;99.90
2202;DHT22;1107;48.654;9.250;2022-11-15T02:29:55;8.10;99.90
2202;DHT22;1107;48.654;9.250;2022-11-15T02:32:34;8.10;99.90
2202;DHT22;1107;48.654;9.250;2022-11-15T02:35:11;8.10;99.90
2202;DHT22;1107;48.654;9.250;2022-11-15T02:37:45;8.10;99.90
2202;DHT22;1107;48.654;9.250;2022-11-15T02:40:21;8.20;99.90
2202;DHT22;1107;48.654;9.250;2022-11-15T02:42:54;8.20;99.90
2202;DHT22;1107;48.654;9.250;2022-11-15T02:45:42;8.30;99.90
2202;DHT22;1107;48.654;9.250;2022-11-15T02:48:13;8.30;1.00
2202;DHT22;1107;48.654;9.250;2022-11-15T02:50:42;8.40;1.00
2202;DHT22;1107;48.654;9.250;2022-11-15T02:53:11;8.40;1.00
2202;DHT22;1107;48.654;9.250;2022-11-15T02:55:39;8.40;1.00
2202;DHT22;1107;48.654;9.250;2022-11-15T02:58:31;8.50;99.90
2202;DHT22;1107;48.654;9.250;2022-11-15T03:01:04;8.50;99.90
2202;DHT22;1107;48.654;9.250;2022-11-15T03:03:48;8.50;99.90
2202;DHT22;1107;48.654;9.250;2022-11-15T03:06:24;8.50;99.90
2202;DHT22;1107;48.654;9.250;2022-11-15T03:09:02;8.50;99.90
2202;DHT22;1107;48.654;9.250;2022-11-15T03:11:32;8.50;1.00
2202;DHT22;1107;48.654;9.250;2022-11-15T03:14:10;8.40;1.00
2202;DHT22;1107;48.654;9.250;2022-11-15T03:16:43;8.30;1.00
2202;DHT22;1107;48.654;9.250;2022-11-15T03:19:19;8.30;1.00
2202;DHT22;1107;48.654;9.250;2022-11-15T03:21:49;8.20;55.50
2202;DHT22;1107;48.654;9.250;2022-11-15T03:24:18;8.20;56.40
2202;DHT22;1107;48.654;9.250;2022-11-15T03:26:47;8.20;96.70
2202;DHT22;1107;48.654;9.250;2022-11-15T03:29:17;8.20;23.70
2202;DHT22;1107;48.654;9.250;2022-11-15T03:31:49;8.20;1.00
2202;DHT22;1107;48.654;9.250;2022-11-15T03:34:26;8.30;1.00
2202;DHT22;1107;48.654;9.250;2022-11-15T03:36:54;8.30;1.00
2202;DHT22;1107;48.654;9.250;2022-11-15T03:39:22;8.40;1.00
2202;DHT22;1107;48.654;9.250;2022-11-15T03:41:59;8.40;1.00
2202;DHT22;1107;48.654;9.250;2022-11-15T03:44:36;8.40;99.90
2202;DHT22;1107;48.654;9.250;2022-11-15T03:47:11;8.50;99.90
2202;DHT22;1107;48.654;9.250;2022-11-15T03:49:44;8.50;1.00
2202;DHT22;1107;48.654;9.250;2022-11-15T03:52:12;8.50;1.00
2202;DHT22;1107;48.654;9.250;2022-11-15T03:54:49;8.50;1.00
2202;DHT22;1107;48.654;9.250;2022-11-15T03:57:16;8.50;1.00
2202;DHT22;1107;48.654;9.250;2022-11-15T03:59:43;8.50;1.00
2202;DHT22;1107;48.654;9.250;2022-11-15T04:02:10;8.50;1.00
2202;DHT22;1107;48.654;9.250;2022-11-15T04:04:37;8.50;99.90
2202;DHT22;1107;48.654;9.250;2022-11-15T04:07:05;8.40;99.90
2202;DHT22;1107;48.654;9.250;2022-11-15T04:09:32;8.30;99.90
2202;DHT22;1107;48.654;9.250;2022-11-15T04:12:19;8.10;99.90
2202;DHT22;1107;48.654;9.250;2022-11-15T04:14:56;7.90;99.90
2202;DHT22;1107;48.654;9.250;2022-11-15T04:17:34;7.90;1.00
2202;DHT22;1107;48.654;9.250;2022-11-15T04:20:02;7.80;1.00
2202;DHT22;1107;48.654;9.250;2022-11-15T04:22:48;7.80;1.00
2202;DHT22;1107;48.654;9.250;2022-11-15T04:25:33;7.80;1.00
2202;DHT22;1107;48.654;9.250;2022-11-15T04:28:00;7.80;1.00
2202;DHT22;1107;48.654;9.250;2022-11-15T04:30:27;7.80;1.00
2202;DHT22;1107;48.654;9.250;2022-11-15T04:32:54;7.70;1.00
2202;DHT22;1107;48.654;9.250;2022-11-15T04:35:21;7.70;1.00
2202;DHT22;1107;48.654;9.250;2022-11-15T04:37:49;7.80;1.00
2202;DHT22;1107;48.654;9.250;2022-11-15T04:40:16;7.90;1.00
2202;DHT22;1107;48.654;9.250;2022-11-15T04:42:43;8.00;99.90
2202;DHT22;1107;48.654;9.250;2022-11-15T04:45:10;8.10;1.00
2202;DHT22;1107;48.654;9.250;2022-11-15T04:47:37;8.30;99.90
2202;DHT22;1107;48.654;9.250;2022-11-15T04:50:05;8.30;1.00
2202;DHT22;1107;48.654;9.250;2022-11-15T04:52:32;8.30;1.00
2202;DHT22;1107;48.654;9.250;2022-11-15T04:55:00;8.40;1.00
2202;DHT22;1107;48.654;9.250;2022-11-15T04:57:27;8.40;1.00
2202;DHT22;1107;48.654;9.250;2022-11-15T04:59:54;8.30;1.00
2202;DHT22;1107;48.654;9.250;2022-11-15T05:02:21;8.30;99.90
2202;DHT22;1107;48.654;9.250;2022-11-15T05:04:48;8.20;99.90
2202;DHT22;1107;48.654;9.250;2022-11-15T05:07:14;8.20;99.90
2202;DHT22;1107;48.654;9.250;2022-11-15T05:09:41;8.20;1.00
2202;DHT22;1107;48.654;9.250;2022-11-15T05:12:09;8.30;99.90
2202;DHT22;1107;48.654;9.250;2022-11-15T05:14:36;8.40;1.00
2202;DHT22;1107;48.654;9.250;2022-11-15T05:17:03;8.40;1.00
2202;DHT22;1107;48.654;9.250;2022-11-15T05:19:30;8.40;99.90
2202;DHT22;1107;48.654;9.250;2022-11-15T05:21:57;8.50;92.40
2202;DHT22;1107;48.654;9.250;2022-11-15T05:24:24;8.50;92.10
2202;DHT22;1107;48.654;9.250;2022-11-15T05:26:51;8.40;1.00
2202;DHT22;1107;48.654;9.250;2022-11-15T05:29:19;8.20;1.00
2202;DHT22;1107;48.654;9.250;2022-11-15T05:31:46;8.00;99.90
2202;DHT22;1107;48.654;9.250;2022-11-15T05:34:13;7.90;1.00
2202;DHT22;1107;48.654;9.250;2022-11-15T05:36:42;7.80;99.90
2202;DHT22;1107;48.654;9.250;2022-11-15T05:39:10;7.70;1.00
2202;DHT22;1107;48.654;9.250;2022-11-15T05:41:39;7.70;1.00
2202;DHT22;1107;48.654;9.250;2022-11-15T05:44:09;7.60;1.00
2202;DHT22;1107;48.654;9.250;2022-11-15T05:46:39;7.60;1.00
2202;DHT22;1107;48.654;9.250;2022-11-15T05:49:10;7.70;1.00
2202;DHT22;1107;48.654;9.250;2022-11-15T05:51:40;7.60;1.00
2202;DHT22;1107;48.654;9.250;2022-11-15T05:54:07;7.70;1.00
2202;DHT22;1107;48.654;9.250;2022-11-15T05:56:34;7.70;1.00
2202;DHT22;1107;48.654;9.250;2022-11-15T05:59:01;7.60;1.00
2202;DHT22;1107;48.654;9.250;2022-11-15T06:01:29;7.60;1.00
2202;DHT22;1107;48.654;9.250;2022-11-15T06:03:57;7.50;1.00
2202;DHT22;1107;48.654;9.250;2022-11-15T06:06:24;7.50;1.00
2202;DHT22;1107;48.654;9.250;2022-11-15T06:08:51;7.50;1.00
2202;DHT22;1107;48.654;9.250;2022-11-15T06:11:18;7.50;1.00
2202;DHT22;1107;48.654;9.250;2022-11-15T06:13:45;7.40;1.00
2202;DHT22;1107;48.654;9.250;2022-11-15T06:16:12;7.40;1.00
2202;DHT22;1107;48.654;9.250;2022-11-15T06:18:39;7.30;1.00
2202;DHT22;1107;48.654;9.250;2022-11-15T06:21:08;7.20;1.00
2202;DHT22;1107;48.654;9.250;2022-11-15T06:23:35;7.10;1.00
2202;DHT22;1107;48.654;9.250;2022-11-15T06:26:03;7.00;1.00
2202;DHT22;1107;48.654;9.250;2022-11-15T06:28:30;7.00;1.00
2202;DHT22;1107;48.654;9.250;2022-11-15T06:31:02;6.90;1.00
2202;DHT22;1107;48.654;9.250;2022-11-15T06:33:30;6.90;1.00
2202;DHT22;1107;48.654;9.250;2022-11-15T06:36:00;6.80;1.00
2202;DHT22;1107;48.654;9.250;2022-11-15T06:38:28;6.80;1.00
2202;DHT22;1107;48.654;9.250;2022-11-15T06:41:01;6.70;1.00
2202;DHT22;1107;48.654;9.250;2022-11-15T06:43:29;6.80;1.00
2202;DHT22;1107;48.654;9.250;2022-11-15T06:45:58;6.80;1.00
2202;DHT22;1107;48.654;9.250;2022-11-15T06:48:25;6.90;1.00
2202;DHT22;1107;48.654;9.250;2022-11-15T06:50:52;7.00;1.00
2202;DHT22;1107;48.654;9.250;2022-11-15T06:53:20;7.20;1.00
2202;DHT22;1107;48.654;9.250;2022-11-15T06:55:48;7.40;1.00
2202;DHT22;1107;48.654;9.250;2022-11-15T06:58:15;7.50;1.00
2202;DHT22;1107;48.654;9.250;2022-11-15T07:00:42;7.80;1.00
2202;DHT22;1107;48.654;9.250;2022-11-15T07:03:10;8.20;1.00
2202;DHT22;1107;48.654;9.250;2022-11-15T07:05:37;8.60;1.00
2202;DHT22;1107;48.654;9.250;2022-11-15T07:08:04;9.00;1.00
2202;DHT22;1107;48.654;9.250;2022-11-15T07:10:31;9.10;29.80
2202;DHT22;1107;48.654;9.250;2022-11-15T07:12:59;9.00;1.00
2202;DHT22;1107;48.654;9.250;2022-11-15T07:15:26;9.00;99.90
2202;DHT22;1107;48.654;9.250;2022-11-15T07:17:53;9.00;99.90
2202;DHT22;1107;48.654;9.250;2022-11-15T07:20:20;9.10;1.00
2202;DHT22;1107;48.654;9.250;2022-11-15T07:22:47;9.30;1.00
2202;DHT22;1107;48.654;9.250;2022-11-15T07:25:14;9.50;1.00
2202;DHT22;1107;48.654;9.250;2022-11-15T07:27:41;9.70;1.00
2202;DHT22;1107;48.654;9.250;2022-11-15T07:30:11;10.20;1.00
2202;DHT22;1107;48.654;9.250;2022-11-15T07:32:38;10.20;99.90
2202;DHT22;1107;48.654;9.250;2022-11-15T07:35:05;10.10;1.00
2202;DHT22;1107;48.654;9.250;2022-11-15T07:37:32;10.20;1.00
2202;DHT22;1107;48.654;9.250;2022-11-15T07:39:59;10.40;99.90
2202;DHT22;1107;48.654;9.250;2022-11-15T07:42:26;11.10;1.00
2202;DHT22;1107;48.654;9.250;2022-11-15T07:45:12;11.50;1.00
2202;DHT22;1107;48.654;9.250;2022-11-15T07:47:39;11.80;99.90
2202;DHT22;1107;48.654;9.250;2022-11-15T07:50:06;12.80;99.90
2202;DHT22;1107;48.654;9.250;2022-11-15T07:52:33;13.70;1.00
2202;DHT22;1107;48.654;9.250;2022-11-15T07:55:00;14.50;1.00
2202;DHT22;1107;48.654;9.250;2022-11-15T07:57:29;15.20;1.00
2202;DHT22;1107;48.654;9.250;2022-11-15T07:59:56;15.10;99.90
2202;DHT22;1107;48.654;9.250;2022-11-15T08:02:24;15.00;99.90
2202;DHT22;1107;48.654;9.250;2022-11-15T08:04:51;15.20;99.90
2202;DHT22;1107;48.654;9.250;2022-11-15T08:07:18;15.50;99.90
2202;DHT22;1107;48.654;9.250;2022-11-15T08:09:45;15.40;99.90
2202;DHT22;1107;48.654;9.250;2022-11-15T08:12:12;14.70;99.90
2202;DHT22;1107;48.654;9.250;2022-11-15T08:14:39;14.10;99.90
2202;DHT22;1107;48.654;9.250;2022-11-15T08:17:06;13.70;1.00
2202;DHT22;1107;48.654;9.250;2022-11-15T08:19:34;13.40;1.00
2202;DHT22;1107;48.654;9.250;2022-11-15T08:22:01;13.30;1.00
2202;DHT22;1107;48.654;9.250;2022-11-15T08:24:28;13.40;1.00
2202;DHT22;1107;48.654;9.250;2022-11-15T08:26:55;13.30;1.00
2202;DHT22;1107;48.654;9.250;2022-11-15T08:29:22;13.20;1.00
2202;DHT22;1107;48.654;9.250;2022-11-15T08:31:49;13.20;99.90
2202;DHT22;1107;48.654;9.250;2022-11-15T08:34:16;13.40;99.90
2202;DHT22;1107;48.654;9.250;2022-11-15T08:36:45;13.80;99.90
2202;DHT22;1107;48.654;9.250;2022-11-15T08:39:12;13.90;1.00
2202;DHT22;1107;48.654;9.250;2022-11-15T08:41:39;13.90;22.80
2202;DHT22;1107;48.654;9.250;2022-11-15T08:44:06;14.00;1.00
2202;DHT22;1107;48.654;9.250;2022-11-15T08:46:33;14.20;1.00
2202;DHT22;1107;48.654;9.250;2022-11-15T08:49:00;14.30;1.00
2202;DHT22;1107;48.654;9.250;2022-11-15T08:51:27;14.50;1.00
2202;DHT22;1107;48.654;9.250;2022-11-15T08:53:55;14.50;1.00
2202;DHT22;1107;48.654;9.250;2022-11-15T08:56:22;14.60;1.00
2202;DHT22;1107;48.654;9.250;2022-11-15T08:58:49;14.90;99.90
2202;DHT22;1107;48.654;9.250;2022-11-15T09:01:17;15.40;99.90
2202;DHT22;1107;48.654;9.250;2022-11-15T09:03:44;15.60;99.90
2202;DHT22;1107;48.654;9.250;2022-11-15T09:06:11;15.50;99.90
2202;DHT22;1107;48.654;9.250;2022-11-15T09:08:38;15.10;99.90
2202;DHT22;1107;48.654;9.250;2022-11-15T09:11:08;14.80;99.90
2202;DHT22;1107;48.654;9.250;2022-11-15T09:13:36;14.50;99.90
2202;DHT22;1107;48.654;9.250;2022-11-15T09:16:04;14.40;99.90
2202;DHT22;1107;48.654;9.250;2022-11-15T09:18:32;14.50;99.90
2202;DHT22;1107;48.654;9.250;2022-11-15T09:20:59;14.60;99.90
2202;DHT22;1107;48.654;9.250;2022-11-15T09:23:27;14.50;99.90
2202;DHT22;1107;48.654;9.250;2022-11-15T09:25:59;14.90;99.90
2202;DHT22;1107;48.654;9.250;2022-11-15T09:28:28;14.90;99.90
2202;DHT22;1107;48.654;9.250;2022-11-15T09:30:57;14.80;99.90
2202;DHT22;1107;48.654;9.250;2022-11-15T09:33:25;14.80;99.90
2202;DHT22;1107;48.654;9.250;2022-11-15T09:35:53;14.50;99.90
2202;DHT22;1107;48.654;9.250;2022-11-15T09:38:20;14.10;99.90
2202;DHT22;1107;48.654;9.250;2022-11-15T09:40:51;14.00;99.90
2202;DHT22;1107;48.654;9.250;2022-11-15T09:43:35;14.90;99.90
2202;DHT22;1107;48.654;9.250;2022-11-15T09:46:11;16.00;99.90
2202;DHT22;1107;48.654;9.250;2022-11-15T09:48:52;16.90;99.90
2202;DHT22;1107;48.654;9.250;2022-11-15T09:51:25;17.20;99.90
2202;DHT22;1107;48.654;9.250;2022-11-15T09:54:00;16.90;99.90
2202;DHT22;1107;48.654;9.250;2022-11-15T09:56:29;16.60;99.90
2202;DHT22;1107;48.654;9.250;2022-11-15T09:59:06;16.20;99.90
2202;DHT22;1107;48.654;9.250;2022-11-15T10:01:41;16.10;99.90
2202;DHT22;1107;48.654;9.250;2022-11-15T10:04:11;16.30;99.90
2202;DHT22;1107;48.654;9.250;2022-11-15T10:06:42;16.20;99.90
2202;DHT22;1107;48.654;9.250;2022-11-15T10:09:15;16.20;99.90
2202;DHT22;1107;48.654;9.250;2022-11-15T10:11:42;16.20;99.90
2202;DHT22;1107;48.654;9.250;2022-11-15T10:14:14;17.40;99.90
2202;DHT22;1107;48.654;9.250;2022-11-15T10:17:25;17.40;99.90
2202;DHT22;1107;48.654;9.250;2022-11-15T10:20:02;17.40;99.90
2202;DHT22;1107;48.654;9.250;2022-11-15T10:22:37;17.40;99.90
2202;DHT22;1107;48.654;9.250;2022-11-15T10:25:22;16.90;99.90
2202;DHT22;1107;48.654;9.250;2022-11-15T10:27:55;16.20;99.90
2202;DHT22;1107;48.654;9.250;2022-11-15T10:30:33;15.90;99.90
2202;DHT22;1107;48.654;9.250;2022-11-15T10:33:21;15.40;99.90
2202;DHT22;1107;48.654;9.250;2022-11-15T10:36:21;15.10;99.90
2202;DHT22;1107;48.654;9.250;2022-11-15T10:38:57;14.70;99.90
2202;DHT22;1107;48.654;9.250;2022-11-15T10:41:34;14.50;99.90
2202;DHT22;1107;48.654;9.250;2022-11-15T10:44:20;14.30;1.00
2202;DHT22;1107;48.654;9.250;2022-11-15T10:47:05;14.20;1.00
2202;DHT22;1107;48.654;9.250;2022-11-15T10:49:33;14.00;1.00
2202;DHT22;1107;48.654;9.250;2022-11-15T10:52:02;13.90;1.00
2202;DHT22;1107;48.654;9.250;2022-11-15T10:54:34;14.10;1.00
2202;DHT22;1107;48.654;9.250;2022-11-15T10:57:06;14.10;1.00
2202;DHT22;1107;48.654;9.250;2022-11-15T10:59:36;14.00;1.00
2202;DHT22;1107;48.654;9.250;2022-11-15T11:02:29;14.00;1.00
2202;DHT22;1107;48.654;9.250;2022-11-15T11:04:57;13.90;30.20
2202;DHT22;1107;48.654;9.250;2022-11-15T11:07:25;13.80;89.60
2202;DHT22;1107;48.654;9.250;2022-11-15T11:10:00;13.80;99.90
2202;DHT22;1107;48.654;9.250;2022-11-15T11:12:29;13.80;99.90
2202;DHT22;1107;48.654;9.250;2022-11-15T11:14:58;13.70;99.90
2202;DHT22;1107;48.654;9.250;2022-11-15T11:17:36;13.60;99.90
2202;DHT22;1107;48.654;9.250;2022-11-15T11:20:12;13.60;99.90
2202;DHT22;1107;48.654;9.250;2022-11-15T11:23:03;13.60;99.90
2202;DHT22;1107;48.654;9.250;2022-11-15T11:25:35;13.50;99.90
2202;DHT22;1107;48.654;9.250;2022-11-15T11:28:26;13.60;99.90
2202;DHT22;1107;48.654;9.250;2022-11-15T11:31:04;13.70;99.90
2202;DHT22;1107;48.654;9.250;2022-11-15T11:33:39;13.70;99.90
2202;DHT22;1107;48.654;9.250;2022-11-15T11:36:16;13.70;99.90
2202;DHT22;1107;48.654;9.250;2022-11-15T11:38:51;13.70;99.90
2202;DHT22;1107;48.654;9.250;2022-11-15T11:41:32;13.80;99.90
2202;DHT22;1107;48.654;9.250;2022-11-15T11:44:15;13.80;99.90
2202;DHT22;1107;48.654;9.250;2022-11-15T11:46:49;13.80;1.00
2202;DHT22;1107;48.654;9.250;2022-11-15T11:49:25;13.90;99.90
2202;DHT22;1107;48.654;9.250;2022-11-15T11:52:00;13.90;99.90
2202;DHT22;1107;48.654;9.250;2022-11-15T11:54:34;14.00;99.90
2202;DHT22;1107;48.654;9.250;2022-11-15T11:57:04;14.20;99.90
2202;DHT22;1107;48.654;9.250;2022-11-15T11:59:39;14.40;1.00
2202;DHT22;1107;48.654;9.250;2022-11-15T12:02:15;14.70;99.90
2202;DHT22;1107;48.654;9.250;2022-11-15T12:04:50;14.70;99.90
2202;DHT22;1107;48.654;9.250;2022-11-15T12:07:21;14.60;99.90
2202;DHT22;1107;48.654;9.250;2022-11-15T12:09:54;14.40;99.90
2202;DHT22;1107;48.654;9.250;2022-11-15T12:12:30;14.30;99.90
2202;DHT22;1107;48.654;9.250;2022-11-15T12:19:37;13.90;99.90
2202;DHT22;1107;48.654;9.250;2022-11-15T12:22:08;13.70;1.00
2202;DHT22;1107;48.654;9.250;2022-11-15T12:24:39;13.50;1.00
2202;DHT22;1107;48.654;9.250;2022-11-15T12:27:16;13.30;1.00
2202;DHT22;1107;48.654;9.250;2022-11-15T12:29:47;13.20;29.40
2202;DHT22;1107;48.654;9.250;2022-11-15T12:32:21;13.20;99.90
2202;DHT22;1107;48.654;9.250;2022-11-15T12:34:52;13.20;1.00
2202;DHT22;1107;48.654;9.250;2022-11-15T12:37:54;13.20;92.80
2202;DHT22;1107;48.654;9.250;2022-11-15T12:46:04;13.10;1.00
2202;DHT22;1107;48.654;9.250;2022-11-15T12:48:56;13.10;1.00
2202;DHT22;1107;48.654;9.250;2022-11-15T12:54:57;13.20;1.00
2202;DHT22;1107;48.654;9.250;2022-11-15T12:57:42;13.20;1.00
2202;DHT22;1107;48.654;9.250;2022-11-15T13:00:44;13.30;1.00
2202;DHT22;1107;48.654;9.250;2022-11-15T13:03:27;13.40;1.00
2202;DHT22;1107;48.654;9.250;2022-11-15T13:06:36;13.50;1.00
2202;DHT22;1107;48.654;9.250;2022-11-15T13:12:55;13.50;1.00
2202;DHT22;1107;48.654;9.250;2022-11-15T13:15:35;13.50;1.00
2202;DHT22;1107;48.654;9.250;2022-11-15T13:18:28;13.40;1.00
2202;DHT22;1107;48.654;9.250;2022-11-15T13:20:55;13.40;1.00
2202;DHT22;1107;48.654;9.250;2022-11-15T13:23:22;13.40;85.00
2202;DHT22;1107;48.654;9.250;2022-11-15T13:26:00;13.40;52.60
2202;DHT22;1107;48.654;9.250;2022-11-15T13:28:32;13.40;5.00
2202;DHT22;1107;48.654;9.250;2022-11-15T13:31:01;13.30;1.00
2202;DHT22;1107;48.654;9.250;2022-11-15T13:33:33;13.30;99.90
2202;DHT22;1107;48.654;9.250;2022-11-15T13:36:03;13.20;1.00
2202;DHT22;1107;48.654;9.250;2022-11-15T13:38:33;13.30;99.90
2202;DHT22;1107;48.654;9.250;2022-11-15T13:41:14;13.20;85.10
2202;DHT22;1107;48.654;9.250;2022-11-15T13:43:44;13.20;99.90
2202;DHT22;1107;48.654;9.250;2022-11-15T13:46:14;13.00;1.00
2202;DHT22;1107;48.654;9.250;2022-11-15T13:48:43;12.90;89.70
2202;DHT22;1107;48.654;9.250;2022-11-15T13:51:17;12.80;1.00
2202;DHT22;1107;48.654;9.250;2022-11-15T13:53:48;12.70;1.00
2202;DHT22;1107;48.654;9.250;2022-11-15T13:56:17;12.70;1.00
2202;DHT22;1107;48.654;9.250;2022-11-15T13:58:46;12.60;1.00
2202;DHT22;1107;48.654;9.250;2022-11-15T14:01:16;12.60;1.00
2202;DHT22;1107;48.654;9.250;2022-11-15T14:03:50;12.60;99.90
2202;DHT22;1107;48.654;9.250;2022-11-15T14:06:20;12.50;99.90
2202;DHT22;1107;48.654;9.250;2022-11-15T14:11:51;12.50;1.00
2202;DHT22;1107;48.654;9.250;2022-11-15T14:14:21;12.50;99.90
2202;DHT22;1107;48.654;9.250;2022-11-15T14:16:50;12.40;99.90
2202;DHT22;1107;48.654;9.250;2022-11-15T14:19:36;12.40;1.00
2202;DHT22;1107;48.654;9.250;2022-11-15T14:22:20;12.50;1.00
2202;DHT22;1107;48.654;9.250;2022-11-15T14:25:06;12.50;1.00
2202;DHT22;1107;48.654;9.250;2022-11-15T14:27:34;12.50;1.00
2202;DHT22;1107;48.654;9.250;2022-11-15T14:30:03;12.50;99.90
2202;DHT22;1107;48.654;9.250;2022-11-15T14:32:39;12.60;1.00
2202;DHT22;1107;48.654;9.250;2022-11-15T14:35:14;12.50;1.00
2202;DHT22;1107;48.654;9.250;2022-11-15T14:37:42;12.60;99.90
2202;DHT22;1107;48.654;9.250;2022-11-15T14:40:13;12.60;99.90
2202;DHT22;1107;48.654;9.250;2022-11-15T14:42:41;12.60;1.00
2202;DHT22;1107;48.654;9.250;2022-11-15T14:45:13;12.60;99.90
2202;DHT22;1107;48.654;9.250;2022-11-15T14:47:40;12.60;1.00
2202;DHT22;1107;48.654;9.250;2022-11-15T14:50:11;12.50;1.00
2202;DHT22;1107;48.654;9.250;2022-11-15T14:52:38;12.50;1.00
2202;DHT22;1107;48.654;9.250;2022-11-15T14:55:14;12.50;99.90
2202;DHT22;1107;48.654;9.250;2022-11-15T14:57:42;12.50;99.90
2202;DHT22;1107;48.654;9.250;2022-11-15T15:00:11;12.50;1.00
2202;DHT22;1107;48.654;9.250;2022-11-15T15:02:39;12.50;1.00
2202;DHT22;1107;48.654;9.250;2022-11-15T15:05:14;12.50;1.00
2202;DHT22;1107;48.654;9.250;2022-11-15T15:07:42;12.50;1.00
2202;DHT22;1107;48.654;9.250;2022-11-15T15:10:09;12.50;37.40
2202;DHT22;1107;48.654;9.250;2022-11-15T15:12:36;12.50;99.90
2202;DHT22;1107;48.654;9.250;2022-11-15T15:15:05;12.40;1.00
2202;DHT22;1107;48.654;9.250;2022-11-15T15:17:33;12.30;99.90
2202;DHT22;1107;48.654;9.250;2022-11-15T15:20:00;12.30;1.00
2202;DHT22;1107;48.654;9.250;2022-11-15T15:22:28;12.30;1.00
2202;DHT22;1107;48.654;9.250;2022-11-15T15:24:56;12.20;99.90
2202;DHT22;1107;48.654;9.250;2022-11-15T15:27:22;12.20;99.90
2202;DHT22;1107;48.654;9.250;2022-11-15T15:29:49;12.30;1.00
2202;DHT22;1107;48.654;9.250;2022-11-15T15:32:16;12.20;1.00
2202;DHT22;1107;48.654;9.250;2022-11-15T15:34:45;12.20;99.90
2202;DHT22;1107;48.654;9.250;2022-11-15T15:37:22;12.10;99.90
2202;DHT22;1107;48.654;9.250;2022-11-15T15:39:50;12.10;47.90
2202;DHT22;1107;48.654;9.250;2022-11-15T15:42:18;12.10;1.00
2202;DHT22;1107;48.654;9.250;2022-11-15T15:44:45;12.10;99.90
2202;DHT22;1107;48.654;9.250;2022-11-15T15:47:12;12.00;1.00
2202;DHT22;1107;48.654;9.250;2022-11-15T15:49:40;12.00;99.90
2202;DHT22;1107;48.654;9.250;2022-11-15T15:52:08;12.00;1.00
2202;DHT22;1107;48.654;9.250;2022-11-15T15:54:35;12.00;99.90
2202;DHT22;1107;48.654;9.250;2022-11-15T15:57:02;11.90;1.00
2202;DHT22;1107;48.654;9.250;2022-11-15T15:59:30;11.90;99.90
2202;DHT22;1107;48.654;9.250;2022-11-15T16:01:57;11.80;1.00
2202;DHT22;1107;48.654;9.250;2022-11-15T16:04:25;11.80;1.00
2202;DHT22;1107;48.654;9.250;2022-11-15T16:06:52;11.80;1.00
2202;DHT22;1107;48.654;9.250;2022-11-15T16:09:21;11.80;99.90
2202;DHT22;1107;48.654;9.250;2022-11-15T16:12:09;11.80;1.00
2202;DHT22;1107;48.654;9.250;2022-11-15T16:14:36;11.70;1.00
2202;DHT22;1107;48.654;9.250;2022-11-15T16:17:03;11.70;99.90
2202;DHT22;1107;48.654;9.250;2022-11-15T16:19:30;11.70;1.00
2202;DHT22;1107;48.654;9.250;2022-11-15T16:21:57;11.70;1.00
2202;DHT22;1107;48.654;9.250;2022-11-15T16:24:26;11.70;1.00
2202;DHT22;1107;48.654;9.250;2022-11-15T16:26:52;11.70;1.00
2202;DHT22;1107;48.654;9.250;2022-11-15T16:29:19;11.70;1.00
2202;DHT22;1107;48.654;9.250;2022-11-15T16:31:46;11.70;46.50
2202;DHT22;1107;48.654;9.250;2022-11-15T16:34:13;11.70;1.00
2202;DHT22;1107;48.654;9.250;2022-11-15T16:36:40;11.70;1.00
2202;DHT22;1107;48.654;9.250;2022-11-15T16:39:11;11.70;1.00
2202;DHT22;1107;48.654;9.250;2022-11-15T16:41:41;11.70;1.00
2202;DHT22;1107;48.654;9.250;2022-11-15T16:44:12;11.70;1.00
2202;DHT22;1107;48.654;9.250;2022-11-15T16:46:40;11.70;1.00
2202;DHT22;1107;48.654;9.250;2022-11-15T16:49:11;11.70;1.00
2202;DHT22;1107;48.654;9.250;2022-11-15T16:51:39;11.70;1.00
2202;DHT22;1107;48.654;9.250;2022-11-15T16:54:06;11.70;1.00
2202;DHT22;1107;48.654;9.250;2022-11-15T16:56:33;11.70;1.00
2202;DHT22;1107;48.654;9.250;2022-11-15T16:59:02;11.70;1.00
2202;DHT22;1107;48.654;9.250;2022-11-15T17:01:30;11.70;5.00
2202;DHT22;1107;48.654;9.250;2022-11-15T17:03:58;11.70;99.90
2202;DHT22;1107;48.654;9.250;2022-11-15T17:06:37;11.70;99.90